sensor_id;sensor_type;location;lat;lon;timestamp;P1;durP1;ratioP1;P2;durP2;ratioP2
25091;SDS011;13082;52.374;4.946;2023-05-20T00:00:39;6.30;;;3.30;;
25091;SDS011;13082;52.374;4.946;2023-05-20T00:03:05;7.47;;;4.00;;
25091;SDS011;13082;52.374;4.946;2023-05-20T00:05:31;6.13;;;4.03;;
25091;SDS011;13082;52.374;4.946;2023-05-20T00:07:56;6.20;;;4.10;;
25091;SDS011;13082;52.374;4.946;2023-05-20T00:10:22;7.60;;;4.30;;
25091;SDS011;13082;52.374;4.946;2023-05-20T00:12:47;8.33;;;4.07;;
25091;SDS011;13082;52.374;4.946;2023-05-20T00:15:13;7.13;;;3.67;;
25091;SDS011;13082;52.374;4.946;2023-05-20T00:17:38;6.40;;;3.57;;
25091;SDS011;13082;52.374;4.946;2023-05-20T00:20:04;8.50;;;3.40;;
25091;SDS011;13082;52.374;4.946;2023-05-20T00:22:31;6.80;;;3.37;;
25091;SDS011;13082;52.374;4.946;2023-05-20T00:24:56;12.13;;;3.80;;
25091;SDS011;13082;52.374;4.946;2023-05-20T00:27:22;5.37;;;3.93;;
25091;SDS011;13082;52.374;4.946;2023-05-20T00:29:48;5.83;;;4.10;;
25091;SDS011;13082;52.374;4.946;2023-05-20T00:32:13;6.63;;;3.97;;
25091;SDS011;13082;52.374;4.946;2023-05-20T00:34:39;8.47;;;3.83;;
25091;SDS011;13082;52.374;4.946;2023-05-20T00:37:07;5.70;;;3.67;;
25091;SDS011;13082;52.374;4.946;2023-05-20T00:39:32;6.90;;;3.97;;
25091;SDS011;13082;52.374;4.946;2023-05-20T00:41:58;6.90;;;3.87;;
25091;SDS011;13082;52.374;4.946;2023-05-20T00:44:26;9.10;;;4.43;;
25091;SDS011;13082;52.374;4.946;2023-05-20T00:46:52;10.83;;;4.70;;
25091;SDS011;13082;52.374;4.946;2023-05-20T00:49:18;11.57;;;4.73;;
25091;SDS011;13082;52.374;4.946;2023-05-20T00:51:45;9.97;;;4.60;;
25091;SDS011;13082;52.374;4.946;2023-05-20T00:54:11;10.90;;;4.60;;
25091;SDS011;13082;52.374;4.946;2023-05-20T00:56:37;9.10;;;4.07;;
25091;SDS011;13082;52.374;4.946;2023-05-20T00:59:03;7.47;;;3.90;;
25091;SDS011;13082;52.374;4.946;2023-05-20T01:01:29;7.27;;;4.10;;
25091;SDS011;13082;52.374;4.946;2023-05-20T01:03:55;5.83;;;3.97;;
25091;SDS011;13082;52.374;4.946;2023-05-20T01:06:20;9.70;;;3.77;;
25091;SDS011;13082;52.374;4.946;2023-05-20T01:08:46;7.63;;;4.27;;
25091;SDS011;13082;52.374;4.946;2023-05-20T01:11:54;9.87;;;5.13;;
25091;SDS011;13082;52.374;4.946;2023-05-20T01:14:05;6.83;;;3.63;;
25091;SDS011;13082;52.374;4.946;2023-05-20T01:16:32;5.77;;;4.07;;
25091;SDS011;13082;52.374;4.946;2023-05-20T01:19:00;7.50;;;3.93;;
25091;SDS011;13082;52.374;4.946;2023-05-20T01:21:29;8.63;;;4.30;;
25091;SDS011;13082;52.374;4.946;2023-05-20T01:23:56;8.30;;;3.90;;
25091;SDS011;13082;52.374;4.946;2023-05-20T01:26:21;9.20;;;3.83;;
25091;SDS011;13082;52.374;4.946;2023-05-20T01:28:50;9.83;;;4.27;;
25091;SDS011;13082;52.374;4.946;2023-05-20T01:31:17;6.63;;;3.83;;
25091;SDS011;13082;52.374;4.946;2023-05-20T01:33:48;6.60;;;3.90;;
25091;SDS011;13082;52.374;4.946;2023-05-20T01:36:19;7.67;;;3.93;;
25091;SDS011;13082;52.374;4.946;2023-05-20T01:38:46;6.13;;;4.20;;
25091;SDS011;13082;52.374;4.946;2023-05-20T01:41:12;10.87;;;4.40;;
25091;SDS011;13082;52.374;4.946;2023-05-20T01:43:38;5.77;;;3.60;;
25091;SDS011;13082;52.374;4.946;2023-05-20T01:46:05;6.80;;;3.70;;
25091;SDS011;13082;52.374;4.946;2023-05-20T01:48:31;7.57;;;4.10;;
25091;SDS011;13082;52.374;4.946;2023-05-20T01:50:56;9.33;;;4.13;;
25091;SDS011;13082;52.374;4.946;2023-05-20T01:53:22;7.77;;;3.83;;
25091;SDS011;13082;52.374;4.946;2023-05-20T01:55:47;7.50;;;4.40;;
25091;SDS011;13082;52.374;4.946;2023-05-20T01:58:13;8.13;;;4.20;;
25091;SDS011;13082;52.374;4.946;2023-05-20T02:00:38;9.07;;;3.70;;
25091;SDS011;13082;52.374;4.946;2023-05-20T02:03:04;6.30;;;3.77;;
25091;SDS011;13082;52.374;4.946;2023-05-20T02:05:30;5.27;;;3.70;;
25091;SDS011;13082;52.374;4.946;2023-05-20T02:07:55;11.40;;;4.33;;
25091;SDS011;13082;52.374;4.946;2023-05-20T02:10:21;7.17;;;3.67;;
25091;SDS011;13082;52.374;4.946;2023-05-20T02:12:46;6.33;;;3.60;;
25091;SDS011;13082;52.374;4.946;2023-05-20T02:15:13;6.27;;;3.60;;
25091;SDS011;13082;52.374;4.946;2023-05-20T02:17:39;6.87;;;3.87;;
25091;SDS011;13082;52.374;4.946;2023-05-20T02:20:07;7.83;;;4.23;;
25091;SDS011;13082;52.374;4.946;2023-05-20T02:22:34;7.50;;;4.10;;
25091;SDS011;13082;52.374;4.946;2023-05-20T02:25:00;4.53;;;3.27;;
25091;SDS011;13082;52.374;4.946;2023-05-20T02:27:25;8.67;;;4.40;;
25091;SDS011;13082;52.374;4.946;2023-05-20T02:29:51;7.87;;;3.87;;
25091;SDS011;13082;52.374;4.946;2023-05-20T02:32:16;10.27;;;3.57;;
25091;SDS011;13082;52.374;4.946;2023-05-20T02:34:44;5.77;;;3.70;;
25091;SDS011;13082;52.374;4.946;2023-05-20T02:37:10;8.70;;;4.20;;
25091;SDS011;13082;52.374;4.946;2023-05-20T02:39:35;5.67;;;4.10;;
25091;SDS011;13082;52.374;4.946;2023-05-20T02:42:01;5.93;;;3.53;;
25091;SDS011;13082;52.374;4.946;2023-05-20T02:44:28;5.73;;;3.40;;
25091;SDS011;13082;52.374;4.946;2023-05-20T02:46:54;4.90;;;2.97;;
25091;SDS011;13082;52.374;4.946;2023-05-20T02:49:20;8.33;;;3.47;;
25091;SDS011;13082;52.374;4.946;2023-05-20T02:51:45;8.90;;;4.00;;
25091;SDS011;13082;52.374;4.946;2023-05-20T02:54:11;7.67;;;3.77;;
25091;SDS011;13082;52.374;4.946;2023-05-20T02:56:36;6.80;;;3.27;;
25091;SDS011;13082;52.374;4.946;2023-05-20T02:59:02;8.37;;;3.80;;
25091;SDS011;13082;52.374;4.946;2023-05-20T03:01:28;4.87;;;3.20;;
25091;SDS011;13082;52.374;4.946;2023-05-20T03:03:54;4.80;;;3.10;;
25091;SDS011;13082;52.374;4.946;2023-05-20T03:06:20;6.93;;;3.33;;
25091;SDS011;13082;52.374;4.946;2023-05-20T03:08:45;9.93;;;3.90;;
25091;SDS011;13082;52.374;4.946;2023-05-20T03:11:11;5.60;;;4.07;;
25091;SDS011;13082;52.374;4.946;2023-05-20T03:13:37;5.97;;;3.83;;
25091;SDS011;13082;52.374;4.946;2023-05-20T03:16:03;6.20;;;3.57;;
25091;SDS011;13082;52.374;4.946;2023-05-20T03:18:29;10.50;;;4.03;;
25091;SDS011;13082;52.374;4.946;2023-05-20T03:20:54;4.63;;;3.60;;
25091;SDS011;13082;52.374;4.946;2023-05-20T03:23:20;5.17;;;3.60;;
25091;SDS011;13082;52.374;4.946;2023-05-20T03:25:46;8.33;;;4.00;;
25091;SDS011;13082;52.374;4.946;2023-05-20T03:28:12;9.20;;;4.13;;
25091;SDS011;13082;52.374;4.946;2023-05-20T03:30:38;7.90;;;3.80;;
25091;SDS011;13082;52.374;4.946;2023-05-20T03:33:03;7.77;;;3.87;;
25091;SDS011;13082;52.374;4.946;2023-05-20T03:35:29;9.17;;;3.60;;
25091;SDS011;13082;52.374;4.946;2023-05-20T03:37:55;5.23;;;3.47;;
25091;SDS011;13082;52.374;4.946;2023-05-20T03:40:22;9.53;;;3.77;;
25091;SDS011;13082;52.374;4.946;2023-05-20T03:42:48;9.63;;;4.50;;
25091;SDS011;13082;52.374;4.946;2023-05-20T03:45:16;7.07;;;3.57;;
25091;SDS011;13082;52.374;4.946;2023-05-20T03:47:42;9.03;;;4.20;;
25091;SDS011;13082;52.374;4.946;2023-05-20T03:50:07;7.40;;;3.17;;
25091;SDS011;13082;52.374;4.946;2023-05-20T03:52:33;6.30;;;3.80;;
25091;SDS011;13082;52.374;4.946;2023-05-20T03:54:59;7.17;;;4.40;;
25091;SDS011;13082;52.374;4.946;2023-05-20T03:57:24;7.43;;;3.70;;
25091;SDS011;13082;52.374;4.946;2023-05-20T03:59:50;7.23;;;3.73;;
25091;SDS011;13082;52.374;4.946;2023-05-20T04:02:16;8.97;;;4.00;;
25091;SDS011;13082;52.374;4.946;2023-05-20T04:04:41;5.53;;;3.73;;
25091;SDS011;13082;52.374;4.946;2023-05-20T04:07:07;7.57;;;3.97;;
25091;SDS011;13082;52.374;4.946;2023-05-20T04:09:33;5.50;;;3.37;;
25091;SDS011;13082;52.374;4.946;2023-05-20T04:11:59;7.63;;;3.67;;
25091;SDS011;13082;52.374;4.946;2023-05-20T04:14:25;10.97;;;3.43;;
25091;SDS011;13082;52.374;4.946;2023-05-20T04:16:51;5.17;;;3.67;;
25091;SDS011;13082;52.374;4.946;2023-05-20T04:19:16;6.63;;;3.60;;
25091;SDS011;13082;52.374;4.946;2023-05-20T04:21:45;4.27;;;3.10;;
25091;SDS011;13082;52.374;4.946;2023-05-20T04:24:10;3.70;;;3.03;;
25091;SDS011;13082;52.374;4.946;2023-05-20T04:26:36;7.43;;;3.50;;
25091;SDS011;13082;52.374;4.946;2023-05-20T04:29:02;5.07;;;3.77;;
25091;SDS011;13082;52.374;4.946;2023-05-20T04:31:28;5.27;;;3.40;;
25091;SDS011;13082;52.374;4.946;2023-05-20T04:33:55;3.93;;;3.13;;
25091;SDS011;13082;52.374;4.946;2023-05-20T04:36:21;6.33;;;3.60;;
25091;SDS011;13082;52.374;4.946;2023-05-20T04:38:46;5.53;;;3.47;;
25091;SDS011;13082;52.374;4.946;2023-05-20T04:41:13;3.87;;;2.60;;
25091;SDS011;13082;52.374;4.946;2023-05-20T04:43:40;6.43;;;4.03;;
25091;SDS011;13082;52.374;4.946;2023-05-20T04:46:06;8.43;;;3.60;;
25091;SDS011;13082;52.374;4.946;2023-05-20T04:48:32;6.20;;;3.60;;
25091;SDS011;13082;52.374;4.946;2023-05-20T04:50:58;5.23;;;3.50;;
25091;SDS011;13082;52.374;4.946;2023-05-20T04:53:24;7.87;;;3.00;;
25091;SDS011;13082;52.374;4.946;2023-05-20T04:55:53;6.73;;;3.10;;
25091;SDS011;13082;52.374;4.946;2023-05-20T04:58:20;6.13;;;3.67;;
25091;SDS011;13082;52.374;4.946;2023-05-20T05:00:48;5.53;;;3.50;;
25091;SDS011;13082;52.374;4.946;2023-05-20T05:03:14;7.70;;;3.37;;
25091;SDS011;13082;52.374;4.946;2023-05-20T05:05:40;6.63;;;3.60;;
25091;SDS011;13082;52.374;4.946;2023-05-20T05:08:06;7.43;;;3.80;;
25091;SDS011;13082;52.374;4.946;2023-05-20T05:10:33;5.17;;;3.50;;
25091;SDS011;13082;52.374;4.946;2023-05-20T05:12:59;6.07;;;4.07;;
25091;SDS011;13082;52.374;4.946;2023-05-20T05:15:25;5.80;;;3.77;;
25091;SDS011;13082;52.374;4.946;2023-05-20T05:17:51;7.13;;;3.87;;
25091;SDS011;13082;52.374;4.946;2023-05-20T05:20:17;5.13;;;3.10;;
25091;SDS011;13082;52.374;4.946;2023-05-20T05:22:43;4.90;;;3.53;;
25091;SDS011;13082;52.374;4.946;2023-05-20T05:25:09;3.50;;;3.20;;
25091;SDS011;13082;52.374;4.946;2023-05-20T05:27:36;6.73;;;3.37;;
25091;SDS011;13082;52.374;4.946;2023-05-20T05:30:02;6.73;;;3.13;;
25091;SDS011;13082;52.374;4.946;2023-05-20T05:32:28;4.87;;;3.17;;
25091;SDS011;13082;52.374;4.946;2023-05-20T05:34:54;5.93;;;3.87;;
25091;SDS011;13082;52.374;4.946;2023-05-20T05:37:20;5.23;;;3.87;;
25091;SDS011;13082;52.374;4.946;2023-05-20T05:39:45;5.70;;;3.77;;
25091;SDS011;13082;52.374;4.946;2023-05-20T05:42:11;4.00;;;3.30;;
25091;SDS011;13082;52.374;4.946;2023-05-20T05:44:37;7.27;;;3.70;;
25091;SDS011;13082;52.374;4.946;2023-05-20T05:47:03;6.40;;;3.37;;
25091;SDS011;13082;52.374;4.946;2023-05-20T05:49:29;3.97;;;3.57;;
25091;SDS011;13082;52.374;4.946;2023-05-20T05:51:55;6.20;;;4.00;;
25091;SDS011;13082;52.374;4.946;2023-05-20T05:54:21;5.87;;;3.33;;
25091;SDS011;13082;52.374;4.946;2023-05-20T05:56:46;7.80;;;4.23;;
25091;SDS011;13082;52.374;4.946;2023-05-20T05:59:12;6.83;;;3.20;;
25091;SDS011;13082;52.374;4.946;2023-05-20T06:01:37;4.37;;;3.70;;
25091;SDS011;13082;52.374;4.946;2023-05-20T06:04:03;6.63;;;3.37;;
25091;SDS011;13082;52.374;4.946;2023-05-20T06:06:29;6.10;;;3.73;;
25091;SDS011;13082;52.374;4.946;2023-05-20T06:08:55;7.30;;;4.10;;
25091;SDS011;13082;52.374;4.946;2023-05-20T06:11:22;8.83;;;4.10;;
25091;SDS011;13082;52.374;4.946;2023-05-20T06:13:48;5.63;;;3.90;;
25091;SDS011;13082;52.374;4.946;2023-05-20T06:16:14;8.13;;;3.53;;
25091;SDS011;13082;52.374;4.946;2023-05-20T06:18:40;6.13;;;3.30;;
25091;SDS011;13082;52.374;4.946;2023-05-20T06:21:06;7.57;;;3.30;;
25091;SDS011;13082;52.374;4.946;2023-05-20T06:23:32;6.73;;;3.60;;
25091;SDS011;13082;52.374;4.946;2023-05-20T06:25:57;6.23;;;3.27;;
25091;SDS011;13082;52.374;4.946;2023-05-20T06:28:24;4.20;;;3.40;;
25091;SDS011;13082;52.374;4.946;2023-05-20T06:30:50;6.50;;;3.30;;
25091;SDS011;13082;52.374;4.946;2023-05-20T06:33:18;4.17;;;2.97;;
25091;SDS011;13082;52.374;4.946;2023-05-20T06:35:44;5.50;;;3.30;;
25091;SDS011;13082;52.374;4.946;2023-05-20T06:38:09;5.70;;;3.50;;
25091;SDS011;13082;52.374;4.946;2023-05-20T06:40:35;4.20;;;3.03;;
25091;SDS011;13082;52.374;4.946;2023-05-20T06:43:01;5.17;;;3.63;;
25091;SDS011;13082;52.374;4.946;2023-05-20T06:45:26;4.13;;;3.03;;
25091;SDS011;13082;52.374;4.946;2023-05-20T06:47:52;4.30;;;3.40;;
25091;SDS011;13082;52.374;4.946;2023-05-20T06:50:18;7.00;;;3.00;;
25091;SDS011;13082;52.374;4.946;2023-05-20T06:52:44;4.93;;;3.27;;
25091;SDS011;13082;52.374;4.946;2023-05-20T06:55:09;4.70;;;3.10;;
25091;SDS011;13082;52.374;4.946;2023-05-20T06:57:35;5.93;;;3.10;;
25091;SDS011;13082;52.374;4.946;2023-05-20T07:00:02;6.07;;;3.13;;
25091;SDS011;13082;52.374;4.946;2023-05-20T07:02:29;5.73;;;4.03;;
25091;SDS011;13082;52.374;4.946;2023-05-20T07:04:57;4.97;;;3.07;;
25091;SDS011;13082;52.374;4.946;2023-05-20T07:07:22;4.40;;;3.13;;
25091;SDS011;13082;52.374;4.946;2023-05-20T07:09:48;4.67;;;3.23;;
25091;SDS011;13082;52.374;4.946;2023-05-20T07:12:14;4.07;;;3.30;;
25091;SDS011;13082;52.374;4.946;2023-05-20T07:14:40;3.60;;;3.20;;
25091;SDS011;13082;52.374;4.946;2023-05-20T07:17:06;4.93;;;3.40;;
25091;SDS011;13082;52.374;4.946;2023-05-20T07:19:31;4.93;;;3.33;;
25091;SDS011;13082;52.374;4.946;2023-05-20T07:21:57;5.93;;;3.53;;
25091;SDS011;13082;52.374;4.946;2023-05-20T07:24:23;5.90;;;3.40;;
25091;SDS011;13082;52.374;4.946;2023-05-20T07:26:49;7.20;;;3.57;;
25091;SDS011;13082;52.374;4.946;2023-05-20T07:29:15;4.80;;;3.27;;
25091;SDS011;13082;52.374;4.946;2023-05-20T07:31:40;4.90;;;3.17;;
25091;SDS011;13082;52.374;4.946;2023-05-20T07:34:06;4.47;;;3.23;;
25091;SDS011;13082;52.374;4.946;2023-05-20T07:36:31;6.03;;;3.20;;
25091;SDS011;13082;52.374;4.946;2023-05-20T07:38:57;6.30;;;3.20;;
25091;SDS011;13082;52.374;4.946;2023-05-20T07:41:24;5.50;;;2.83;;
25091;SDS011;13082;52.374;4.946;2023-05-20T07:43:50;4.60;;;3.40;;
25091;SDS011;13082;52.374;4.946;2023-05-20T07:46:16;5.80;;;3.90;;
25091;SDS011;13082;52.374;4.946;2023-05-20T07:48:41;4.13;;;3.07;;
25091;SDS011;13082;52.374;4.946;2023-05-20T07:51:09;3.30;;;2.83;;
25091;SDS011;13082;52.374;4.946;2023-05-20T07:53:35;6.57;;;2.97;;
25091;SDS011;13082;52.374;4.946;2023-05-20T07:56:01;4.43;;;3.17;;
25091;SDS011;13082;52.374;4.946;2023-05-20T07:58:27;5.27;;;3.43;;
25091;SDS011;13082;52.374;4.946;2023-05-20T08:00:52;3.90;;;2.80;;
25091;SDS011;13082;52.374;4.946;2023-05-20T08:03:18;6.03;;;3.03;;
25091;SDS011;13082;52.374;4.946;2023-05-20T08:05:46;4.87;;;2.80;;
25091;SDS011;13082;52.374;4.946;2023-05-20T08:08:11;3.27;;;2.60;;
25091;SDS011;13082;52.374;4.946;2023-05-20T08:10:37;5.73;;;3.00;;
25091;SDS011;13082;52.374;4.946;2023-05-20T08:13:03;5.73;;;3.00;;
25091;SDS011;13082;52.374;4.946;2023-05-20T08:15:28;3.33;;;2.60;;
25091;SDS011;13082;52.374;4.946;2023-05-20T08:17:54;4.23;;;3.10;;
25091;SDS011;13082;52.374;4.946;2023-05-20T08:20:20;4.50;;;3.40;;
25091;SDS011;13082;52.374;4.946;2023-05-20T08:22:46;3.43;;;3.13;;
25091;SDS011;13082;52.374;4.946;2023-05-20T08:25:11;4.73;;;2.87;;
25091;SDS011;13082;52.374;4.946;2023-05-20T08:27:37;3.87;;;2.47;;
25091;SDS011;13082;52.374;4.946;2023-05-20T08:30:04;4.80;;;2.97;;
25091;SDS011;13082;52.374;4.946;2023-05-20T08:32:32;3.10;;;2.73;;
25091;SDS011;13082;52.374;4.946;2023-05-20T08:34:57;5.87;;;2.73;;
25091;SDS011;13082;52.374;4.946;2023-05-20T08:37:25;4.03;;;3.50;;
25091;SDS011;13082;52.374;4.946;2023-05-20T08:39:51;5.03;;;2.83;;
25091;SDS011;13082;52.374;4.946;2023-05-20T08:42:20;4.60;;;3.13;;
25091;SDS011;13082;52.374;4.946;2023-05-20T08:44:47;3.17;;;2.60;;
25091;SDS011;13082;52.374;4.946;2023-05-20T08:47:14;3.87;;;2.57;;
25091;SDS011;13082;52.374;4.946;2023-05-20T08:49:39;7.10;;;3.37;;
25091;SDS011;13082;52.374;4.946;2023-05-20T08:52:05;3.17;;;2.63;;
25091;SDS011;13082;52.374;4.946;2023-05-20T08:54:51;5.27;;;2.47;;
25091;SDS011;13082;52.374;4.946;2023-05-20T08:57:17;3.50;;;2.40;;
25091;SDS011;13082;52.374;4.946;2023-05-20T08:59:45;4.57;;;2.80;;
25091;SDS011;13082;52.374;4.946;2023-05-20T09:02:11;5.33;;;2.70;;
25091;SDS011;13082;52.374;4.946;2023-05-20T09:04:37;2.97;;;2.73;;
25091;SDS011;13082;52.374;4.946;2023-05-20T09:07:03;3.17;;;2.83;;
25091;SDS011;13082;52.374;4.946;2023-05-20T09:09:29;3.00;;;2.70;;
25091;SDS011;13082;52.374;4.946;2023-05-20T09:11:57;4.57;;;2.97;;
25091;SDS011;13082;52.374;4.946;2023-05-20T09:14:27;4.07;;;2.60;;
25091;SDS011;13082;52.374;4.946;2023-05-20T09:16:53;3.53;;;3.23;;
25091;SDS011;13082;52.374;4.946;2023-05-20T09:19:20;6.53;;;3.22;;
25091;SDS011;13082;52.374;4.946;2023-05-20T09:21:46;4.60;;;2.85;;
25091;SDS011;13082;52.374;4.946;2023-05-20T09:24:12;2.87;;;2.67;;
25091;SDS011;13082;52.374;4.946;2023-05-20T09:26:38;2.60;;;2.40;;
25091;SDS011;13082;52.374;4.946;2023-05-20T09:29:04;7.70;;;2.60;;
25091;SDS011;13082;52.374;4.946;2023-05-20T09:31:30;8.00;;;3.57;;
25091;SDS011;13082;52.374;4.946;2023-05-20T09:33:58;4.10;;;2.77;;
25091;SDS011;13082;52.374;4.946;2023-05-20T09:36:26;5.63;;;2.97;;
25091;SDS011;13082;52.374;4.946;2023-05-20T09:38:53;5.33;;;2.87;;
25091;SDS011;13082;52.374;4.946;2023-05-20T09:41:24;4.40;;;3.00;;
25091;SDS011;13082;52.374;4.946;2023-05-20T09:43:57;4.40;;;3.10;;
25091;SDS011;13082;52.374;4.946;2023-05-20T09:46:24;5.37;;;2.80;;
25091;SDS011;13082;52.374;4.946;2023-05-20T09:48:51;5.53;;;3.03;;
25091;SDS011;13082;52.374;4.946;2023-05-20T09:51:17;3.55;;;2.67;;
25091;SDS011;13082;52.374;4.946;2023-05-20T09:53:43;3.28;;;2.65;;
25091;SDS011;13082;52.374;4.946;2023-05-20T09:56:09;4.38;;;2.40;;
25091;SDS011;13082;52.374;4.946;2023-05-20T09:58:35;6.55;;;2.78;;
25091;SDS011;13082;52.374;4.946;2023-05-20T10:01:02;3.13;;;2.25;;
25091;SDS011;13082;52.374;4.946;2023-05-20T10:03:27;3.50;;;2.78;;
25091;SDS011;13082;52.374;4.946;2023-05-20T10:06:01;2.80;;;2.60;;
25091;SDS011;13082;52.374;4.946;2023-05-20T10:08:55;6.50;;;2.55;;
25091;SDS011;13082;52.374;4.946;2023-05-20T10:11:41;5.50;;;2.83;;
25091;SDS011;13082;52.374;4.946;2023-05-20T10:16:47;2.88;;;2.63;;
25091;SDS011;13082;52.374;4.946;2023-05-20T10:21:57;2.55;;;2.35;;
25091;SDS011;13082;52.374;4.946;2023-05-20T10:24:28;3.20;;;2.60;;
25091;SDS011;13082;52.374;4.946;2023-05-20T10:26:58;3.88;;;2.40;;
25091;SDS011;13082;52.374;4.946;2023-05-20T10:29:26;2.80;;;2.33;;
25091;SDS011;13082;52.374;4.946;2023-05-20T10:31:52;4.25;;;2.17;;
25091;SDS011;13082;52.374;4.946;2023-05-20T10:34:19;2.70;;;2.47;;
25091;SDS011;13082;52.374;4.946;2023-05-20T10:36:56;4.45;;;2.03;;
25091;SDS011;13082;52.374;4.946;2023-05-20T10:39:30;3.88;;;2.33;;
25091;SDS011;13082;52.374;4.946;2023-05-20T10:42:06;3.90;;;1.92;;
25091;SDS011;13082;52.374;4.946;2023-05-20T10:44:42;2.40;;;2.15;;
25091;SDS011;13082;52.374;4.946;2023-05-20T10:47:09;3.30;;;2.10;;
25091;SDS011;13082;52.374;4.946;2023-05-20T10:49:35;2.67;;;2.42;;
25091;SDS011;13082;52.374;4.946;2023-05-20T10:52:05;2.17;;;1.90;;
25091;SDS011;13082;52.374;4.946;2023-05-20T10:54:42;2.15;;;1.70;;
25091;SDS011;13082;52.374;4.946;2023-05-20T10:57:09;2.03;;;1.73;;
25091;SDS011;13082;52.374;4.946;2023-05-20T10:59:35;4.63;;;2.15;;
25091;SDS011;13082;52.374;4.946;2023-05-20T11:02:01;2.03;;;1.83;;
25091;SDS011;13082;52.374;4.946;2023-05-20T11:04:28;2.53;;;1.88;;
25091;SDS011;13082;52.374;4.946;2023-05-20T11:06:54;2.25;;;1.70;;
25091;SDS011;13082;52.374;4.946;2023-05-20T11:09:21;1.60;;;1.50;;
25091;SDS011;13082;52.374;4.946;2023-05-20T11:11:46;4.53;;;2.28;;
25091;SDS011;13082;52.374;4.946;2023-05-20T11:14:13;3.03;;;1.90;;
25091;SDS011;13082;52.374;4.946;2023-05-20T11:16:40;2.13;;;1.83;;
25091;SDS011;13082;52.374;4.946;2023-05-20T11:19:06;1.70;;;1.60;;
25091;SDS011;13082;52.374;4.946;2023-05-20T11:21:33;3.30;;;2.10;;
25091;SDS011;13082;52.374;4.946;2023-05-20T11:23:59;3.85;;;2.00;;
25091;SDS011;13082;52.374;4.946;2023-05-20T11:26:25;1.70;;;1.60;;
25091;SDS011;13082;52.374;4.946;2023-05-20T11:28:50;3.03;;;2.03;;
25091;SDS011;13082;52.374;4.946;2023-05-20T11:31:17;5.28;;;2.78;;
25091;SDS011;13082;52.374;4.946;2023-05-20T11:33:43;3.65;;;1.75;;
25091;SDS011;13082;52.374;4.946;2023-05-20T11:36:08;5.30;;;2.25;;
25091;SDS011;13082;52.374;4.946;2023-05-20T11:38:35;2.33;;;1.67;;
25091;SDS011;13082;52.374;4.946;2023-05-20T11:41:01;3.67;;;1.50;;
25091;SDS011;13082;52.374;4.946;2023-05-20T11:43:26;2.88;;;1.70;;
25091;SDS011;13082;52.374;4.946;2023-05-20T11:45:56;2.00;;;1.70;;
25091;SDS011;13082;52.374;4.946;2023-05-20T11:48:25;1.92;;;1.83;;
25091;SDS011;13082;52.374;4.946;2023-05-20T11:50:52;2.47;;;1.73;;
25091;SDS011;13082;52.374;4.946;2023-05-20T11:53:19;1.50;;;1.40;;
25091;SDS011;13082;52.374;4.946;2023-05-20T11:55:46;3.10;;;1.85;;
25091;SDS011;13082;52.374;4.946;2023-05-20T11:58:26;6.28;;;2.33;;
25091;SDS011;13082;52.374;4.946;2023-05-20T12:00:53;4.70;;;2.00;;
25091;SDS011;13082;52.374;4.946;2023-05-20T12:03:19;1.58;;;1.45;;
25091;SDS011;13082;52.374;4.946;2023-05-20T12:05:45;2.92;;;1.70;;
25091;SDS011;13082;52.374;4.946;2023-05-20T12:08:15;3.72;;;2.10;;
25091;SDS011;13082;52.374;4.946;2023-05-20T12:10:40;2.15;;;1.95;;
25091;SDS011;13082;52.374;4.946;2023-05-20T12:13:06;2.17;;;1.98;;
25091;SDS011;13082;52.374;4.946;2023-05-20T12:15:35;1.77;;;1.67;;
25091;SDS011;13082;52.374;4.946;2023-05-20T12:18:04;1.95;;;1.60;;
25091;SDS011;13082;52.374;4.946;2023-05-20T12:20:30;1.60;;;1.50;;
25091;SDS011;13082;52.374;4.946;2023-05-20T12:22:57;2.38;;;1.80;;
25091;SDS011;13082;52.374;4.946;2023-05-20T12:25:24;4.00;;;1.90;;
25091;SDS011;13082;52.374;4.946;2023-05-20T12:27:50;2.33;;;1.90;;
25091;SDS011;13082;52.374;4.946;2023-05-20T12:30:17;2.90;;;1.85;;
25091;SDS011;13082;52.374;4.946;2023-05-20T12:32:44;2.00;;;1.80;;
25091;SDS011;13082;52.374;4.946;2023-05-20T12:35:11;2.42;;;1.85;;
25091;SDS011;13082;52.374;4.946;2023-05-20T12:37:38;3.28;;;1.90;;
25091;SDS011;13082;52.374;4.946;2023-05-20T12:40:05;2.33;;;1.55;;
25091;SDS011;13082;52.374;4.946;2023-05-20T12:42:35;2.08;;;1.88;;
25091;SDS011;13082;52.374;4.946;2023-05-20T12:45:02;2.65;;;1.60;;
25091;SDS011;13082;52.374;4.946;2023-05-20T12:47:28;2.03;;;1.77;;
25091;SDS011;13082;52.374;4.946;2023-05-20T12:49:54;2.35;;;1.58;;
25091;SDS011;13082;52.374;4.946;2023-05-20T12:52:20;3.17;;;1.92;;
25091;SDS011;13082;52.374;4.946;2023-05-20T12:54:45;2.78;;;2.33;;
25091;SDS011;13082;52.374;4.946;2023-05-20T12:57:11;6.13;;;2.10;;
25091;SDS011;13082;52.374;4.946;2023-05-20T12:59:37;2.28;;;1.60;;
25091;SDS011;13082;52.374;4.946;2023-05-20T13:02:02;5.80;;;2.00;;
25091;SDS011;13082;52.374;4.946;2023-05-20T13:04:28;2.70;;;1.83;;
25091;SDS011;13082;52.374;4.946;2023-05-20T13:06:53;1.83;;;1.73;;
25091;SDS011;13082;52.374;4.946;2023-05-20T13:09:19;2.50;;;2.10;;
25091;SDS011;13082;52.374;4.946;2023-05-20T13:11:45;3.97;;;2.00;;
25091;SDS011;13082;52.374;4.946;2023-05-20T13:14:11;3.93;;;2.20;;
25091;SDS011;13082;52.374;4.946;2023-05-20T13:16:37;2.00;;;1.80;;
25091;SDS011;13082;52.374;4.946;2023-05-20T13:19:02;1.50;;;1.40;;
25091;SDS011;13082;52.374;4.946;2023-05-20T13:21:28;2.92;;;1.67;;
25091;SDS011;13082;52.374;4.946;2023-05-20T13:23:54;1.83;;;1.70;;
25091;SDS011;13082;52.374;4.946;2023-05-20T13:26:20;3.05;;;1.55;;
25091;SDS011;13082;52.374;4.946;2023-05-20T13:28:46;1.75;;;1.65;;
25091;SDS011;13082;52.374;4.946;2023-05-20T13:31:11;3.15;;;1.95;;
25091;SDS011;13082;52.374;4.946;2023-05-20T13:33:37;5.22;;;1.83;;
25091;SDS011;13082;52.374;4.946;2023-05-20T13:36:02;3.35;;;2.08;;
25091;SDS011;13082;52.374;4.946;2023-05-20T13:38:28;4.07;;;1.80;;
25091;SDS011;13082;52.374;4.946;2023-05-20T13:40:54;3.15;;;1.50;;
25091;SDS011;13082;52.374;4.946;2023-05-20T13:43:23;4.38;;;1.70;;
25091;SDS011;13082;52.374;4.946;2023-05-20T13:45:49;3.05;;;1.60;;
25091;SDS011;13082;52.374;4.946;2023-05-20T13:48:15;1.55;;;1.45;;
25091;SDS011;13082;52.374;4.946;2023-05-20T13:50:41;1.65;;;1.55;;
25091;SDS011;13082;52.374;4.946;2023-05-20T13:53:07;4.50;;;2.47;;
25091;SDS011;13082;52.374;4.946;2023-05-20T13:55:36;1.58;;;1.48;;
25091;SDS011;13082;52.374;4.946;2023-05-20T13:58:02;1.88;;;1.77;;
25091;SDS011;13082;52.374;4.946;2023-05-20T14:00:29;1.73;;;1.63;;
25091;SDS011;13082;52.374;4.946;2023-05-20T14:02:55;4.88;;;1.67;;
25091;SDS011;13082;52.374;4.946;2023-05-20T14:05:21;3.67;;;1.90;;
25091;SDS011;13082;52.374;4.946;2023-05-20T14:07:47;3.33;;;1.83;;
25091;SDS011;13082;52.374;4.946;2023-05-20T14:10:13;4.18;;;1.88;;
25091;SDS011;13082;52.374;4.946;2023-05-20T14:12:38;1.40;;;1.30;;
25091;SDS011;13082;52.374;4.946;2023-05-20T14:15:04;1.98;;;1.65;;
25091;SDS011;13082;52.374;4.946;2023-05-20T14:17:31;2.17;;;1.83;;
25091;SDS011;13082;52.374;4.946;2023-05-20T14:19:56;2.08;;;1.48;;
25091;SDS011;13082;52.374;4.946;2023-05-20T14:22:22;2.15;;;1.52;;
25091;SDS011;13082;52.374;4.946;2023-05-20T14:24:48;4.35;;;1.73;;
25091;SDS011;13082;52.374;4.946;2023-05-20T14:27:13;2.90;;;1.40;;
25091;SDS011;13082;52.374;4.946;2023-05-20T14:29:39;2.22;;;2.03;;
25091;SDS011;13082;52.374;4.946;2023-05-20T14:32:05;4.45;;;1.90;;
25091;SDS011;13082;52.374;4.946;2023-05-20T14:34:30;1.58;;;1.48;;
25091;SDS011;13082;52.374;4.946;2023-05-20T14:36:56;3.97;;;1.63;;
25091;SDS011;13082;52.374;4.946;2023-05-20T14:39:22;2.08;;;1.48;;
25091;SDS011;13082;52.374;4.946;2023-05-20T14:41:47;2.28;;;1.85;;
25091;SDS011;13082;52.374;4.946;2023-05-20T14:44:13;2.97;;;1.80;;
25091;SDS011;13082;52.374;4.946;2023-05-20T14:46:38;1.95;;;1.80;;
25091;SDS011;13082;52.374;4.946;2023-05-20T14:49:04;4.93;;;2.15;;